sensor_id;sensor_type;location;lat;lon;timestamp;P1;durP1;ratioP1;P2;durP2;ratioP2
1537;SDS011;12022;52.266;10.522;2023-05-31T00:00:13;9.50;;;9.40;;
1537;SDS011;12022;52.266;10.522;2023-05-31T00:02:40;6.90;;;6.80;;
1537;SDS011;12022;52.266;10.522;2023-05-31T00:05:07;18.03;;;17.63;;
1537;SDS011;12022;52.266;10.522;2023-05-31T00:07:35;9.67;;;9.53;;
1537;SDS011;12022;52.266;10.522;2023-05-31T00:10:02;5.20;;;5.10;;
1537;SDS011;12022;52.266;10.522;2023-05-31T00:12:29;6.80;;;6.70;;
1537;SDS011;12022;52.266;10.522;2023-05-31T00:14:56;7.10;;;7.00;;
1537;SDS011;12022;52.266;10.522;2023-05-31T00:17:26;12.63;;;12.40;;
1537;SDS011;12022;52.266;10.522;2023-05-31T00:20:13;7.93;;;7.83;;
1537;SDS011;12022;52.266;10.522;2023-05-31T00:22:40;9.13;;;9.03;;
1537;SDS011;12022;52.266;10.522;2023-05-31T00:25:07;11.53;;;11.33;;
1537;SDS011;12022;52.266;10.522;2023-05-31T00:27:34;8.90;;;8.80;;
1537;SDS011;12022;52.266;10.522;2023-05-31T00:30:02;9.40;;;9.30;;
1537;SDS011;12022;52.266;10.522;2023-05-31T00:32:29;12.77;;;12.57;;
1537;SDS011;12022;52.266;10.522;2023-05-31T00:34:56;10.33;;;10.23;;
1537;SDS011;12022;52.266;10.522;2023-05-31T00:37:23;7.73;;;7.63;;
1537;SDS011;12022;52.266;10.522;2023-05-31T00:39:53;5.83;;;5.73;;
1537;SDS011;12022;52.266;10.522;2023-05-31T00:42:20;7.37;;;7.27;;
1537;SDS011;12022;52.266;10.522;2023-05-31T00:44:47;8.63;;;8.53;;
1537;SDS011;12022;52.266;10.522;2023-05-31T00:47:17;9.50;;;9.40;;
1537;SDS011;12022;52.266;10.522;2023-05-31T00:49:44;7.30;;;7.20;;
1537;SDS011;12022;52.266;10.522;2023-05-31T00:52:11;7.83;;;7.73;;
1537;SDS011;12022;52.266;10.522;2023-05-31T00:54:38;7.47;;;7.37;;
1537;SDS011;12022;52.266;10.522;2023-05-31T00:57:05;8.20;;;8.10;;
1537;SDS011;12022;52.266;10.522;2023-05-31T00:59:33;7.67;;;7.57;;
1537;SDS011;12022;52.266;10.522;2023-05-31T01:02:00;10.37;;;10.17;;
1537;SDS011;12022;52.266;10.522;2023-05-31T01:04:30;11.30;;;11.10;;
1537;SDS011;12022;52.266;10.522;2023-05-31T01:06:58;11.23;;;11.03;;
1537;SDS011;12022;52.266;10.522;2023-05-31T01:09:27;10.30;;;10.10;;
1537;SDS011;12022;52.266;10.522;2023-05-31T01:17:13;14.10;;;13.83;;
1537;SDS011;12022;52.266;10.522;2023-05-31T01:20:00;11.97;;;11.77;;
1537;SDS011;12022;52.266;10.522;2023-05-31T01:25:41;9.27;;;9.17;;
1537;SDS011;12022;52.266;10.522;2023-05-31T01:28:25;9.90;;;9.80;;
1537;SDS011;12022;52.266;10.522;2023-05-31T01:30:53;9.60;;;9.50;;
1537;SDS011;12022;52.266;10.522;2023-05-31T01:33:24;6.60;;;6.50;;
1537;SDS011;12022;52.266;10.522;2023-05-31T01:35:51;9.30;;;9.20;;
1537;SDS011;12022;52.266;10.522;2023-05-31T01:38:21;7.60;;;7.50;;
1537;SDS011;12022;52.266;10.522;2023-05-31T01:40:48;9.50;;;9.40;;
1537;SDS011;12022;52.266;10.522;2023-05-31T01:43:16;9.60;;;9.50;;
1537;SDS011;12022;52.266;10.522;2023-05-31T01:45:44;17.90;;;17.50;;
1537;SDS011;12022;52.266;10.522;2023-05-31T01:48:11;15.83;;;15.53;;
1537;SDS011;12022;52.266;10.522;2023-05-31T01:50:39;9.10;;;9.00;;
1537;SDS011;12022;52.266;10.522;2023-05-31T01:53:07;10.77;;;10.57;;
1537;SDS011;12022;52.266;10.522;2023-05-31T01:55:35;15.83;;;15.53;;
1537;SDS011;12022;52.266;10.522;2023-05-31T01:58:02;13.87;;;13.67;;
1537;SDS011;12022;52.266;10.522;2023-05-31T02:00:30;8.10;;;8.00;;
1537;SDS011;12022;52.266;10.522;2023-05-31T02:02:58;11.57;;;11.37;;
1537;SDS011;12022;52.266;10.522;2023-05-31T02:05:25;13.80;;;13.60;;
1537;SDS011;12022;52.266;10.522;2023-05-31T02:07:52;14.13;;;13.90;;
1537;SDS011;12022;52.266;10.522;2023-05-31T02:10:21;21.13;;;20.73;;
1537;SDS011;12022;52.266;10.522;2023-05-31T02:12:48;14.60;;;14.30;;
1537;SDS011;12022;52.266;10.522;2023-05-31T02:15:20;10.57;;;10.37;;
1537;SDS011;12022;52.266;10.522;2023-05-31T02:17:47;11.80;;;11.60;;
1537;SDS011;12022;52.266;10.522;2023-05-31T02:20:17;10.80;;;10.60;;
1537;SDS011;12022;52.266;10.522;2023-05-31T02:22:45;14.60;;;14.30;;
1537;SDS011;12022;52.266;10.522;2023-05-31T02:25:13;11.10;;;10.90;;
1537;SDS011;12022;52.266;10.522;2023-05-31T02:27:42;9.90;;;9.80;;
1537;SDS011;12022;52.266;10.522;2023-05-31T02:30:09;10.47;;;10.33;;
1537;SDS011;12022;52.266;10.522;2023-05-31T02:32:37;10.47;;;10.30;;
1537;SDS011;12022;52.266;10.522;2023-05-31T02:35:05;8.30;;;8.20;;
1537;SDS011;12022;52.266;10.522;2023-05-31T02:37:34;8.70;;;8.60;;
1537;SDS011;12022;52.266;10.522;2023-05-31T02:40:02;9.83;;;9.73;;
1537;SDS011;12022;52.266;10.522;2023-05-31T02:42:34;10.60;;;10.40;;
1537;SDS011;12022;52.266;10.522;2023-05-31T02:45:02;11.37;;;11.17;;
1537;SDS011;12022;52.266;10.522;2023-05-31T02:47:30;10.80;;;10.60;;
1537;SDS011;12022;52.266;10.522;2023-05-31T02:49:57;5.37;;;5.27;;
1537;SDS011;12022;52.266;10.522;2023-05-31T02:52:25;8.43;;;8.33;;
1537;SDS011;12022;52.266;10.522;2023-05-31T02:54:52;14.67;;;14.37;;
1537;SDS011;12022;52.266;10.522;2023-05-31T02:57:19;22.77;;;22.27;;
1537;SDS011;12022;52.266;10.522;2023-05-31T02:59:48;7.77;;;7.67;;
1537;SDS011;12022;52.266;10.522;2023-05-31T03:02:15;10.13;;;10.00;;
1537;SDS011;12022;52.266;10.522;2023-05-31T03:04:42;7.40;;;7.30;;
1537;SDS011;12022;52.266;10.522;2023-05-31T03:07:10;8.53;;;8.43;;
1537;SDS011;12022;52.266;10.522;2023-05-31T03:09:37;6.40;;;6.30;;
1537;SDS011;12022;52.266;10.522;2023-05-31T03:12:04;7.00;;;6.90;;
1537;SDS011;12022;52.266;10.522;2023-05-31T03:14:32;7.47;;;7.37;;
1537;SDS011;12022;52.266;10.522;2023-05-31T03:16:59;7.67;;;7.57;;
1537;SDS011;12022;52.266;10.522;2023-05-31T03:19:27;7.37;;;7.27;;
1537;SDS011;12022;52.266;10.522;2023-05-31T03:21:54;5.97;;;5.87;;
1537;SDS011;12022;52.266;10.522;2023-05-31T03:24:21;6.10;;;6.00;;
1537;SDS011;12022;52.266;10.522;2023-05-31T03:26:48;8.13;;;8.03;;
1537;SDS011;12022;52.266;10.522;2023-05-31T03:29:15;8.23;;;8.13;;
1537;SDS011;12022;52.266;10.522;2023-05-31T03:31:42;8.37;;;8.27;;
1537;SDS011;12022;52.266;10.522;2023-05-31T03:34:09;8.97;;;8.87;;
1537;SDS011;12022;52.266;10.522;2023-05-31T03:36:36;10.83;;;10.63;;
1537;SDS011;12022;52.266;10.522;2023-05-31T03:39:03;10.13;;;9.97;;
1537;SDS011;12022;52.266;10.522;2023-05-31T03:41:30;7.27;;;7.17;;
1537;SDS011;12022;52.266;10.522;2023-05-31T03:43:58;8.40;;;8.20;;
1537;SDS011;12022;52.266;10.522;2023-05-31T03:46:25;6.63;;;6.53;;
1537;SDS011;12022;52.266;10.522;2023-05-31T03:48:52;7.80;;;7.70;;
1537;SDS011;12022;52.266;10.522;2023-05-31T03:51:19;7.57;;;7.47;;
1537;SDS011;12022;52.266;10.522;2023-05-31T03:53:46;7.23;;;7.13;;
1537;SDS011;12022;52.266;10.522;2023-05-31T03:56:13;6.83;;;6.73;;
1537;SDS011;12022;52.266;10.522;2023-05-31T03:58:40;9.13;;;9.03;;
1537;SDS011;12022;52.266;10.522;2023-05-31T04:01:07;9.20;;;9.10;;
1537;SDS011;12022;52.266;10.522;2023-05-31T04:03:34;7.90;;;7.80;;
1537;SDS011;12022;52.266;10.522;2023-05-31T04:06:06;7.17;;;7.07;;
1537;SDS011;12022;52.266;10.522;2023-05-31T04:08:34;10.07;;;9.97;;
1537;SDS011;12022;52.266;10.522;2023-05-31T04:11:01;8.60;;;8.50;;
1537;SDS011;12022;52.266;10.522;2023-05-31T04:13:29;10.57;;;10.40;;
1537;SDS011;12022;52.266;10.522;2023-05-31T04:15:56;10.03;;;9.90;;
1537;SDS011;12022;52.266;10.522;2023-05-31T04:18:23;9.90;;;9.80;;
1537;SDS011;12022;52.266;10.522;2023-05-31T04:20:50;14.37;;;14.07;;
1537;SDS011;12022;52.266;10.522;2023-05-31T04:23:18;11.80;;;11.60;;
1537;SDS011;12022;52.266;10.522;2023-05-31T04:25:45;8.27;;;8.17;;
1537;SDS011;12022;52.266;10.522;2023-05-31T04:28:13;7.73;;;7.63;;
1537;SDS011;12022;52.266;10.522;2023-05-31T04:30:41;8.00;;;7.90;;
1537;SDS011;12022;52.266;10.522;2023-05-31T04:33:11;9.43;;;9.33;;
1537;SDS011;12022;52.266;10.522;2023-05-31T04:35:38;6.30;;;6.20;;
1537;SDS011;12022;52.266;10.522;2023-05-31T04:38:06;9.17;;;9.07;;
1537;SDS011;12022;52.266;10.522;2023-05-31T04:40:33;15.87;;;15.57;;
1537;SDS011;12022;52.266;10.522;2023-05-31T04:43:00;12.33;;;12.13;;
1537;SDS011;12022;52.266;10.522;2023-05-31T04:45:27;13.03;;;12.83;;
1537;SDS011;12022;52.266;10.522;2023-05-31T04:47:54;10.93;;;10.73;;
1537;SDS011;12022;52.266;10.522;2023-05-31T04:50:21;13.27;;;13.07;;
1537;SDS011;12022;52.266;10.522;2023-05-31T04:52:49;21.53;;;21.07;;
1537;SDS011;12022;52.266;10.522;2023-05-31T04:55:17;18.50;;;18.10;;
1537;SDS011;12022;52.266;10.522;2023-05-31T04:57:45;12.90;;;12.70;;
1537;SDS011;12022;52.266;10.522;2023-05-31T05:00:12;15.27;;;14.97;;
1537;SDS011;12022;52.266;10.522;2023-05-31T05:02:42;16.93;;;16.60;;
1537;SDS011;12022;52.266;10.522;2023-05-31T05:05:12;21.03;;;20.63;;
1537;SDS011;12022;52.266;10.522;2023-05-31T05:07:39;22.40;;;21.90;;
1537;SDS011;12022;52.266;10.522;2023-05-31T05:10:08;21.00;;;20.60;;
1537;SDS011;12022;52.266;10.522;2023-05-31T05:12:35;18.40;;;18.00;;
1537;SDS011;12022;52.266;10.522;2023-05-31T05:15:02;16.50;;;16.20;;
1537;SDS011;12022;52.266;10.522;2023-05-31T05:17:29;20.77;;;20.37;;
1537;SDS011;12022;52.266;10.522;2023-05-31T05:19:56;18.83;;;18.43;;
1537;SDS011;12022;52.266;10.522;2023-05-31T05:22:23;17.73;;;17.40;;
1537;SDS011;12022;52.266;10.522;2023-05-31T05:24:51;15.23;;;14.93;;
1537;SDS011;12022;52.266;10.522;2023-05-31T05:27:18;27.17;;;26.57;;
1537;SDS011;12022;52.266;10.522;2023-05-31T05:29:47;30.33;;;29.63;;
1537;SDS011;12022;52.266;10.522;2023-05-31T05:32:14;32.73;;;31.93;;
1537;SDS011;12022;52.266;10.522;2023-05-31T05:34:42;22.10;;;21.60;;
1537;SDS011;12022;52.266;10.522;2023-05-31T05:37:10;22.53;;;22.03;;
1537;SDS011;12022;52.266;10.522;2023-05-31T05:39:37;17.00;;;16.70;;
1537;SDS011;12022;52.266;10.522;2023-05-31T05:42:04;26.90;;;26.30;;
1537;SDS011;12022;52.266;10.522;2023-05-31T05:44:32;26.43;;;25.83;;
1537;SDS011;12022;52.266;10.522;2023-05-31T05:46:58;51.73;;;50.43;;
1537;SDS011;12022;52.266;10.522;2023-05-31T05:49:25;21.17;;;20.70;;
1537;SDS011;12022;52.266;10.522;2023-05-31T05:51:53;24.60;;;24.03;;
1537;SDS011;12022;52.266;10.522;2023-05-31T05:54:20;21.50;;;21.00;;
1537;SDS011;12022;52.266;10.522;2023-05-31T05:56:47;27.00;;;26.40;;
1537;SDS011;12022;52.266;10.522;2023-05-31T05:59:13;30.40;;;29.70;;
1537;SDS011;12022;52.266;10.522;2023-05-31T06:01:40;29.63;;;28.93;;
1537;SDS011;12022;52.266;10.522;2023-05-31T06:04:07;40.83;;;39.83;;
1537;SDS011;12022;52.266;10.522;2023-05-31T06:06:34;24.03;;;23.53;;
1537;SDS011;12022;52.266;10.522;2023-05-31T06:09:02;45.50;;;44.37;;
1537;SDS011;12022;52.266;10.522;2023-05-31T06:11:29;29.90;;;29.20;;
1537;SDS011;12022;52.266;10.522;2023-05-31T06:13:56;27.50;;;26.87;;
1537;SDS011;12022;52.266;10.522;2023-05-31T06:16:24;29.40;;;28.70;;
1537;SDS011;12022;52.266;10.522;2023-05-31T06:18:51;29.80;;;29.10;;
1537;SDS011;12022;52.266;10.522;2023-05-31T06:21:18;63.93;;;62.33;;
1537;SDS011;12022;52.266;10.522;2023-05-31T06:23:45;38.70;;;37.80;;
1537;SDS011;12022;52.266;10.522;2023-05-31T06:26:12;38.43;;;37.47;;
1537;SDS011;12022;52.266;10.522;2023-05-31T06:28:39;34.27;;;33.37;;
1537;SDS011;12022;52.266;10.522;2023-05-31T06:31:06;29.37;;;28.67;;
1537;SDS011;12022;52.266;10.522;2023-05-31T06:33:35;34.47;;;33.67;;
1537;SDS011;12022;52.266;10.522;2023-05-31T06:36:02;33.20;;;32.40;;
1537;SDS011;12022;52.266;10.522;2023-05-31T06:38:29;41.70;;;40.67;;
1537;SDS011;12022;52.266;10.522;2023-05-31T06:40:56;38.30;;;37.30;;
1537;SDS011;12022;52.266;10.522;2023-05-31T06:43:23;33.93;;;33.13;;
1537;SDS011;12022;52.266;10.522;2023-05-31T06:45:51;32.73;;;31.93;;
1537;SDS011;12022;52.266;10.522;2023-05-31T06:48:17;33.03;;;32.23;;
1537;SDS011;12022;52.266;10.522;2023-05-31T06:50:45;44.70;;;43.60;;
1537;SDS011;12022;52.266;10.522;2023-05-31T06:53:12;22.07;;;21.57;;
1537;SDS011;12022;52.266;10.522;2023-05-31T06:55:39;27.87;;;27.23;;
1537;SDS011;12022;52.266;10.522;2023-05-31T06:58:07;24.40;;;23.87;;
1537;SDS011;12022;52.266;10.522;2023-05-31T07:00:34;23.67;;;23.17;;
1537;SDS011;12022;52.266;10.522;2023-05-31T07:03:01;19.90;;;19.50;;
1537;SDS011;12022;52.266;10.522;2023-05-31T07:05:28;39.90;;;38.90;;
1537;SDS011;12022;52.266;10.522;2023-05-31T07:07:58;30.17;;;29.47;;
1537;SDS011;12022;52.266;10.522;2023-05-31T07:10:26;24.73;;;24.13;;
1537;SDS011;12022;52.266;10.522;2023-05-31T07:12:54;58.60;;;57.10;;
1537;SDS011;12022;52.266;10.522;2023-05-31T07:15:21;68.53;;;66.73;;
1537;SDS011;12022;52.266;10.522;2023-05-31T07:17:48;28.03;;;27.40;;
1537;SDS011;12022;52.266;10.522;2023-05-31T07:20:15;48.70;;;47.47;;
1537;SDS011;12022;52.266;10.522;2023-05-31T07:22:42;33.23;;;32.43;;
1537;SDS011;12022;52.266;10.522;2023-05-31T07:25:09;26.33;;;25.73;;
1537;SDS011;12022;52.266;10.522;2023-05-31T07:27:36;49.63;;;48.37;;
1537;SDS011;12022;52.266;10.522;2023-05-31T07:30:03;22.27;;;21.77;;
1537;SDS011;12022;52.266;10.522;2023-05-31T07:32:31;16.13;;;15.83;;
1537;SDS011;12022;52.266;10.522;2023-05-31T07:34:58;25.80;;;25.20;;
1537;SDS011;12022;52.266;10.522;2023-05-31T07:37:30;33.70;;;32.90;;
1537;SDS011;12022;52.266;10.522;2023-05-31T07:39:58;19.53;;;19.07;;
1537;SDS011;12022;52.266;10.522;2023-05-31T07:42:25;24.00;;;23.50;;
1537;SDS011;12022;52.266;10.522;2023-05-31T07:44:53;28.37;;;27.77;;
1537;SDS011;12022;52.266;10.522;2023-05-31T07:47:20;34.93;;;34.10;;
1537;SDS011;12022;52.266;10.522;2023-05-31T07:49:47;27.43;;;26.83;;
1537;SDS011;12022;52.266;10.522;2023-05-31T07:52:17;35.03;;;34.20;;
1537;SDS011;12022;52.266;10.522;2023-05-31T07:54:48;27.80;;;27.20;;
1537;SDS011;12022;52.266;10.522;2023-05-31T07:57:16;21.73;;;21.27;;
1537;SDS011;12022;52.266;10.522;2023-05-31T07:59:44;31.83;;;31.10;;
1537;SDS011;12022;52.266;10.522;2023-05-31T08:02:11;28.17;;;27.47;;
1537;SDS011;12022;52.266;10.522;2023-05-31T08:04:38;29.20;;;28.50;;
1537;SDS011;12022;52.266;10.522;2023-05-31T08:07:05;30.17;;;29.47;;
1537;SDS011;12022;52.266;10.522;2023-05-31T08:09:33;23.70;;;23.20;;
1537;SDS011;12022;52.266;10.522;2023-05-31T08:11:59;22.73;;;22.20;;
1537;SDS011;12022;52.266;10.522;2023-05-31T08:14:29;32.97;;;32.20;;
1537;SDS011;12022;52.266;10.522;2023-05-31T08:16:56;24.43;;;23.83;;
1537;SDS011;12022;52.266;10.522;2023-05-31T08:19:23;21.90;;;21.40;;
1537;SDS011;12022;52.266;10.522;2023-05-31T08:21:50;28.30;;;27.63;;
1537;SDS011;12022;52.266;10.522;2023-05-31T08:24:18;20.43;;;20.03;;
1537;SDS011;12022;52.266;10.522;2023-05-31T08:26:45;30.20;;;29.50;;
1537;SDS011;12022;52.266;10.522;2023-05-31T08:29:12;11.57;;;11.37;;
1537;SDS011;12022;52.266;10.522;2023-05-31T08:31:39;24.03;;;23.50;;
1537;SDS011;12022;52.266;10.522;2023-05-31T08:34:07;8.13;;;8.03;;
1537;SDS011;12022;52.266;10.522;2023-05-31T08:36:33;7.23;;;7.13;;
1537;SDS011;12022;52.266;10.522;2023-05-31T08:39:01;10.00;;;9.80;;
1537;SDS011;12022;52.266;10.522;2023-05-31T08:41:30;6.07;;;5.97;;
1537;SDS011;12022;52.266;10.522;2023-05-31T08:44:02;5.87;;;5.77;;
1537;SDS011;12022;52.266;10.522;2023-05-31T08:46:29;6.37;;;6.27;;
1537;SDS011;12022;52.266;10.522;2023-05-31T08:49:02;3.43;;;3.43;;
1537;SDS011;12022;52.266;10.522;2023-05-31T08:51:35;2.90;;;2.90;;
1537;SDS011;12022;52.266;10.522;2023-05-31T08:54:03;2.90;;;2.90;;
1537;SDS011;12022;52.266;10.522;2023-05-31T08:56:32;2.33;;;2.33;;
1537;SDS011;12022;52.266;10.522;2023-05-31T08:59:00;11.87;;;11.67;;
1537;SDS011;12022;52.266;10.522;2023-05-31T09:01:29;2.50;;;2.50;;
1537;SDS011;12022;52.266;10.522;2023-05-31T09:03:57;2.80;;;2.80;;
1537;SDS011;12022;52.266;10.522;2023-05-31T09:06:24;3.20;;;3.20;;
1537;SDS011;12022;52.266;10.522;2023-05-31T09:09:10;3.90;;;3.90;;
1537;SDS011;12022;52.266;10.522;2023-05-31T09:11:56;2.40;;;2.40;;
1537;SDS011;12022;52.266;10.522;2023-05-31T09:14:41;3.93;;;3.93;;
1537;SDS011;12022;52.266;10.522;2023-05-31T09:17:27;2.87;;;2.87;;
1537;SDS011;12022;52.266;10.522;2023-05-31T09:20:13;2.73;;;2.73;;
1537;SDS011;12022;52.266;10.522;2023-05-31T09:22:48;2.47;;;2.47;;
1537;SDS011;12022;52.266;10.522;2023-05-31T09:25:15;4.20;;;4.10;;
1537;SDS011;12022;52.266;10.522;2023-05-31T09:27:42;4.37;;;4.27;;
1537;SDS011;12022;52.266;10.522;2023-05-31T09:30:10;4.97;;;4.90;;
1537;SDS011;12022;52.266;10.522;2023-05-31T09:32:38;4.50;;;4.50;;
1537;SDS011;12022;52.266;10.522;2023-05-31T09:40:14;5.27;;;5.17;;
1537;SDS011;12022;52.266;10.522;2023-05-31T09:42:48;1.80;;;1.80;;
1537;SDS011;12022;52.266;10.522;2023-05-31T09:45:16;8.00;;;7.90;;
1537;SDS011;12022;52.266;10.522;2023-05-31T09:47:43;4.70;;;4.60;;
1537;SDS011;12022;52.266;10.522;2023-05-31T09:50:11;4.53;;;4.43;;
1537;SDS011;12022;52.266;10.522;2023-05-31T09:52:45;3.30;;;3.27;;
1537;SDS011;12022;52.266;10.522;2023-05-31T09:55:38;3.27;;;3.27;;
1537;SDS011;12022;52.266;10.522;2023-05-31T09:58:09;9.67;;;9.47;;
1537;SDS011;12022;52.266;10.522;2023-05-31T10:00:42;3.83;;;3.83;;
1537;SDS011;12022;52.266;10.522;2023-05-31T10:03:12;11.33;;;11.13;;
1537;SDS011;12022;52.266;10.522;2023-05-31T10:05:39;14.93;;;14.10;;
1537;SDS011;12022;52.266;10.522;2023-05-31T10:08:06;13.63;;;13.37;;
1537;SDS011;12022;52.266;10.522;2023-05-31T10:10:33;5.87;;;5.77;;
1537;SDS011;12022;52.266;10.522;2023-05-31T10:13:01;2.93;;;2.93;;
1537;SDS011;12022;52.266;10.522;2023-05-31T10:15:31;6.17;;;6.07;;
1537;SDS011;12022;52.266;10.522;2023-05-31T10:18:00;3.23;;;3.23;;
1537;SDS011;12022;52.266;10.522;2023-05-31T10:20:37;3.23;;;3.23;;
1537;SDS011;12022;52.266;10.522;2023-05-31T10:23:08;3.90;;;3.90;;
1537;SDS011;12022;52.266;10.522;2023-05-31T10:25:44;2.67;;;2.67;;
1537;SDS011;12022;52.266;10.522;2023-05-31T10:28:35;4.30;;;4.30;;
1537;SDS011;12022;52.266;10.522;2023-05-31T10:31:05;3.13;;;3.13;;
1537;SDS011;12022;52.266;10.522;2023-05-31T10:33:37;3.30;;;3.30;;
1537;SDS011;12022;52.266;10.522;2023-05-31T10:36:08;2.33;;;2.33;;
1537;SDS011;12022;52.266;10.522;2023-05-31T10:38:37;2.40;;;2.40;;
1537;SDS011;12022;52.266;10.522;2023-05-31T10:41:15;3.10;;;3.10;;
1537;SDS011;12022;52.266;10.522;2023-05-31T10:43:54;3.23;;;3.23;;
1537;SDS011;12022;52.266;10.522;2023-05-31T10:46:26;5.77;;;5.67;;
1537;SDS011;12022;52.266;10.522;2023-05-31T10:48:55;7.60;;;7.50;;
1537;SDS011;12022;52.266;10.522;2023-05-31T10:54:07;3.67;;;3.67;;
1537;SDS011;12022;52.266;10.522;2023-05-31T10:56:38;4.77;;;4.67;;
1537;SDS011;12022;52.266;10.522;2023-05-31T10:59:08;3.57;;;3.57;;
1537;SDS011;12022;52.266;10.522;2023-05-31T11:01:37;4.30;;;4.20;;
1537;SDS011;12022;52.266;10.522;2023-05-31T11:04:05;9.00;;;8.90;;
1537;SDS011;12022;52.266;10.522;2023-05-31T11:06:52;4.40;;;4.30;;
1537;SDS011;12022;52.266;10.522;2023-05-31T11:09:41;3.57;;;3.57;;
1537;SDS011;12022;52.266;10.522;2023-05-31T11:12:30;3.83;;;3.83;;
1537;SDS011;12022;52.266;10.522;2023-05-31T11:15:02;2.63;;;2.63;;
1537;SDS011;12022;52.266;10.522;2023-05-31T11:17:40;3.27;;;3.27;;
1537;SDS011;12022;52.266;10.522;2023-05-31T11:20:23;2.30;;;2.30;;
1537;SDS011;12022;52.266;10.522;2023-05-31T11:26:14;2.00;;;2.00;;
1537;SDS011;12022;52.266;10.522;2023-05-31T11:28:49;2.63;;;2.63;;
1537;SDS011;12022;52.266;10.522;2023-05-31T11:34:18;2.97;;;2.80;;
1537;SDS011;12022;52.266;10.522;2023-05-31T11:36:50;1.70;;;1.70;;
1537;SDS011;12022;52.266;10.522;2023-05-31T11:39:19;1.40;;;1.40;;
1537;SDS011;12022;52.266;10.522;2023-05-31T11:41:47;1.30;;;1.30;;
1537;SDS011;12022;52.266;10.522;2023-05-31T11:44:14;1.87;;;1.87;;
1537;SDS011;12022;52.266;10.522;2023-05-31T11:46:47;1.60;;;1.60;;
1537;SDS011;12022;52.266;10.522;2023-05-31T11:49:21;2.13;;;2.13;;
1537;SDS011;12022;52.266;10.522;2023-05-31T11:51:48;1.33;;;1.33;;
1537;SDS011;12022;52.266;10.522;2023-05-31T11:54:15;2.47;;;2.47;;
1537;SDS011;12022;52.266;10.522;2023-05-31T11:56:43;0.90;;;0.90;;
1537;SDS011;12022;52.266;10.522;2023-05-31T11:59:10;6.20;;;6.10;;
1537;SDS011;12022;52.266;10.522;2023-05-31T12:01:39;3.03;;;3.03;;
1537;SDS011;12022;52.266;10.522;2023-05-31T12:04:06;3.50;;;3.47;;
1537;SDS011;12022;52.266;10.522;2023-05-31T12:06:33;2.50;;;2.50;;
1537;SDS011;12022;52.266;10.522;2023-05-31T12:09:01;2.40;;;2.40;;
1537;SDS011;12022;52.266;10.522;2023-05-31T12:11:29;5.87;;;5.77;;
1537;SDS011;12022;52.266;10.522;2023-05-31T12:13:57;9.97;;;9.77;;
1537;SDS011;12022;52.266;10.522;2023-05-31T12:16:25;13.20;;;13.00;;
1537;SDS011;12022;52.266;10.522;2023-05-31T12:18:54;12.63;;;12.43;;
1537;SDS011;12022;52.266;10.522;2023-05-31T12:21:23;3.70;;;3.70;;
1537;SDS011;12022;52.266;10.522;2023-05-31T12:23:51;2.70;;;2.70;;
1537;SDS011;12022;52.266;10.522;2023-05-31T12:26:19;1.80;;;1.80;;
1537;SDS011;12022;52.266;10.522;2023-05-31T12:28:48;3.40;;;3.40;;
1537;SDS011;12022;52.266;10.522;2023-05-31T12:31:23;4.27;;;4.27;;
1537;SDS011;12022;52.266;10.522;2023-05-31T12:34:10;4.47;;;4.37;;
1537;SDS011;12022;52.266;10.522;2023-05-31T12:36:44;3.97;;;3.97;;
1537;SDS011;12022;52.266;10.522;2023-05-31T12:39:20;2.60;;;2.60;;
1537;SDS011;12022;52.266;10.522;2023-05-31T12:41:48;5.50;;;5.40;;
1537;SDS011;12022;52.266;10.522;2023-05-31T12:44:16;7.13;;;7.03;;
1537;SDS011;12022;52.266;10.522;2023-05-31T12:46:50;5.50;;;5.40;;
1537;SDS011;12022;52.266;10.522;2023-05-31T12:49:21;4.40;;;4.40;;
1537;SDS011;12022;52.266;10.522;2023-05-31T12:52:05;3.67;;;3.67;;
1537;SDS011;12022;52.266;10.522;2023-05-31T12:54:37;4.10;;;4.10;;
1537;SDS011;12022;52.266;10.522;2023-05-31T12:57:08;6.10;;;6.00;;
1537;SDS011;12022;52.266;10.522;2023-05-31T12:59:36;4.40;;;4.40;;
1537;SDS011;12022;52.266;10.522;2023-05-31T13:02:04;2.93;;;2.93;;
1537;SDS011;12022;52.266;10.522;2023-05-31T13:04:32;3.63;;;3.63;;
1537;SDS011;12022;52.266;10.522;2023-05-31T13:07:00;3.27;;;3.27;;
1537;SDS011;12022;52.266;10.522;2023-05-31T13:09:28;3.80;;;3.80;;
1537;SDS011;12022;52.266;10.522;2023-05-31T13:11:55;2.50;;;2.50;;
1537;SDS011;12022;52.266;10.522;2023-05-31T13:14:22;2.93;;;2.93;;
1537;SDS011;12022;52.266;10.522;2023-05-31T13:16:52;2.30;;;2.30;;
1537;SDS011;12022;52.266;10.522;2023-05-31T13:19:20;3.07;;;3.07;;
1537;SDS011;12022;52.266;10.522;2023-05-31T13:21:47;18.33;;;17.93;;
1537;SDS011;12022;52.266;10.522;2023-05-31T13:24:14;27.07;;;26.47;;
1537;SDS011;12022;52.266;10.522;2023-05-31T13:26:41;16.37;;;16.07;;
1537;SDS011;12022;52.266;10.522;2023-05-31T13:29:08;24.57;;;24.03;;
1537;SDS011;12022;52.266;10.522;2023-05-31T13:32:00;5.27;;;5.17;;
1537;SDS011;12022;52.266;10.522;2023-05-31T13:34:51;4.80;;;4.70;;
1537;SDS011;12022;52.266;10.522;2023-05-31T13:37:22;3.97;;;3.97;;
1537;SDS011;12022;52.266;10.522;2023-05-31T13:39:49;4.07;;;4.00;;
1537;SDS011;12022;52.266;10.522;2023-05-31T13:42:16;2.90;;;2.90;;
1537;SDS011;12022;52.266;10.522;2023-05-31T13:44:43;3.03;;;3.03;;
1537;SDS011;12022;52.266;10.522;2023-05-31T13:47:10;4.23;;;4.23;;
1537;SDS011;12022;52.266;10.522;2023-05-31T13:49:37;5.37;;;5.27;;
1537;SDS011;12022;52.266;10.522;2023-05-31T13:52:04;7.27;;;7.17;;
1537;SDS011;12022;52.266;10.522;2023-05-31T13:54:34;10.63;;;10.43;;
1537;SDS011;12022;52.266;10.522;2023-05-31T13:57:01;4.27;;;4.27;;
1537;SDS011;12022;52.266;10.522;2023-05-31T13:59:30;1.80;;;1.80;;
1537;SDS011;12022;52.266;10.522;2023-05-31T14:01:57;1.03;;;1.03;;
1537;SDS011;12022;52.266;10.522;2023-05-31T14:04:24;4.63;;;4.53;;
1537;SDS011;12022;52.266;10.522;2023-05-31T14:06:52;3.17;;;3.17;;
1537;SDS011;12022;52.266;10.522;2023-05-31T14:09:19;1.70;;;1.70;;
1537;SDS011;12022;52.266;10.522;2023-05-31T14:11:47;4.70;;;4.60;;
1537;SDS011;12022;52.266;10.522;2023-05-31T14:14:14;5.57;;;5.47;;
1537;SDS011;12022;52.266;10.522;2023-05-31T14:16:41;3.90;;;3.90;;
1537;SDS011;12022;52.266;10.522;2023-05-31T14:19:08;2.43;;;2.43;;
1537;SDS011;12022;52.266;10.522;2023-05-31T14:21:35;3.73;;;3.63;;
1537;SDS011;12022;52.266;10.522;2023-05-31T14:24:08;2.70;;;2.70;;
1537;SDS011;12022;52.266;10.522;2023-05-31T14:26:35;2.20;;;2.20;;
1537;SDS011;12022;52.266;10.522;2023-05-31T14:29:03;6.07;;;5.97;;
1537;SDS011;12022;52.266;10.522;2023-05-31T14:31:30;7.23;;;7.13;;
1537;SDS011;12022;52.266;10.522;2023-05-31T14:33:57;6.80;;;6.70;;
1537;SDS011;12022;52.266;10.522;2023-05-31T14:36:25;9.47;;;9.37;;
1537;SDS011;12022;52.266;10.522;2023-05-31T14:38:52;5.20;;;5.10;;
1537;SDS011;12022;52.266;10.522;2023-05-31T14:41:19;2.90;;;2.87;;
1537;SDS011;12022;52.266;10.522;2023-05-31T14:43:47;2.30;;;2.30;;
1537;SDS011;12022;52.266;10.522;2023-05-31T14:46:14;2.00;;;2.00;;
1537;SDS011;12022;52.266;10.522;2023-05-31T14:48:42;3.03;;;3.03;;
1537;SDS011;12022;52.266;10.522;2023-05-31T14:51:09;1.63;;;1.63;;
1537;SDS011;12022;52.266;10.522;2023-05-31T14:53:36;1.93;;;1.93;;
1537;SDS011;12022;52.266;10.522;2023-05-31T14:56:03;2.40;;;2.40;;
1537;SDS011;12022;52.266;10.522;2023-05-31T14:58:43;3.40;;;3.37;;
1537;SDS011;12022;52.266;10.522;2023-05-31T15:01:13;3.93;;;3.93;;
1537;SDS011;12022;52.266;10.522;2023-05-31T15:03:40;4.10;;;4.00;;
1537;SDS011;12022;52.266;10.522;2023-05-31T15:06:07;3.20;;;3.20;;
1537;SDS011;12022;52.266;10.522;2023-05-31T15:08:34;3.00;;;3.00;;